Terminal Aerodrome Forecast
Issued by NWS Twin Cities, MN

Home | Current Version | Previous Version | Text Only | Print | Product List | Glossary On
Versions: 1 2 3 4 5 6 7 8 9 10 11 12 13 14 15 16 17 18 19
000
FTUS43 KMPX 131100
TAFSTC
TAF
KSTC 131130Z 1312/1412 31005KT P6SM FEW090
     FM131600 31012G18KT P6SM SKC
     FM131800 30016G23KT P6SM FEW050
     FM140100 31008KT P6SM SCT060=

USA.gov is the U.S. government's official web portal to all federal, state and local government web resources and services.